Time;durP1;ratioP1;P1;durP2;ratioP2;P2;SDS_P1;SDS_P2;PMS_P1;PMS_P2;Temp;Humidity;BMP_temperature;BMP_pressure;BME280_temperature;BME280_humidity;BME280_pressure;Samples;Min_cycle;Max_cycle;Signal;HPM_P1;HPM_P2
2023/04/09 00:02:24;;;;;;;32.20;19.20;;;;;;;;;;8342284;28;20041;-90
2023/04/09 00:06:27;;;;;;;33.30;20.08;;;;;;;;;;8354533;28;20484;-88
2023/04/09 00:10:30;;;;;;;31.67;17.88;;;;;;;;;;8340313;28;20049;-89
2023/04/09 00:14:35;;;;;;;34.08;19.88;;;;;;;;;;8349787;28;20069;-91
2023/04/09 00:18:39;;;;;;;34.00;20.13;;;;;;;;;;8334826;28;20113;-91
2023/04/09 00:22:42;;;;;;;32.28;19.52;;;;;;;;;;8345324;28;20057;-91
2023/04/09 00:26:45;;;;;;;34.00;19.75;;;;;;;;;;8333041;28;20041;-92
2023/04/09 00:30:51;;;;;;;30.65;18.63;;;;;;;;;;8356885;28;20477;-91
2023/04/09 00:34:55;;;;;;;32.15;19.35;;;;;;;;;;8345599;28;20275;-89
2023/04/09 00:38:58;;;;;;;37.53;21.25;;;;;;;;;;8344390;28;20096;-90
2023/04/09 00:43:01;;;;;;;31.00;19.02;;;;;;;;;;8352957;28;20064;-91
2023/04/09 00:47:05;;;;;;;36.92;23.20;;;;;;;;;;8346382;28;20127;-90
2023/04/09 00:51:10;;;;;;;38.58;21.90;;;;;;;;;;8335727;28;20045;-89
2023/04/09 00:55:13;;;;;;;54.55;29.05;;;;;;;;;;8339668;28;20127;-90
2023/04/09 00:59:16;;;;;;;51.33;27.75;;;;;;;;;;8334261;28;20121;-89
2023/04/09 01:03:20;;;;;;;48.05;25.17;;;;;;;;;;8348312;28;20409;-89
2023/04/09 01:07:35;;;;;;;45.22;25.15;;;;;;;;;;8349352;28;20037;-91
2023/04/09 01:11:45;;;;;;;46.47;26.75;;;;;;;;;;8351922;28;20041;-90
2023/04/09 01:16:02;;;;;;;51.38;26.58;;;;;;;;;;8330683;28;20049;-89
2023/04/09 01:20:09;;;;;;;50.05;27.20;;;;;;;;;;8327322;28;20073;-91
2023/04/09 01:24:21;;;;;;;48.95;27.80;;;;;;;;;;8338481;28;20104;-90
2023/04/09 01:28:29;;;;;;;;;;;;;;;;;;8343425;28;20056;-89
2023/04/09 01:32:36;;;;;;;42.75;24.27;;;;;;;;;;8337733;28;20385;-91
2023/04/09 01:36:40;;;;;;;52.75;26.30;;;;;;;;;;8325700;28;20042;-91
2023/04/09 01:40:44;;;;;;;51.35;28.40;;;;;;;;;;8337127;28;20047;-91
2023/04/09 01:44:49;;;;;;;46.20;26.40;;;;;;;;;;8348540;28;20119;-90
2023/04/09 01:48:52;;;;;;;50.55;26.10;;;;;;;;;;8352304;28;20124;-91
2023/04/09 01:52:55;;;;;;;41.50;23.35;;;;;;;;;;8343949;28;20140;-91
2023/04/09 01:56:58;;;;;;;47.40;25.17;;;;;;;;;;8329569;28;20046;-90
2023/04/09 02:01:07;;;;;;;44.88;25.15;;;;;;;;;;8325236;28;20053;-91
2023/04/09 02:05:15;;;;;;;46.15;24.58;;;;;;;;;;8337236;28;20065;-90
2023/04/09 02:09:21;;;;;;;43.75;24.85;;;;;;;;;;8540026;22;20053;-92
2023/04/09 02:13:26;;;;;;;40.78;25.08;;;;;;;;;;8291860;28;20393;-92
2023/04/09 02:17:30;;;;;;;41.05;23.10;;;;;;;;;;8298036;28;20054;-91
2023/04/09 02:21:33;;;;;;;39.45;23.05;;;;;;;;;;8297390;28;20052;-92
2023/04/09 02:25:36;;;;;;;80.22;33.67;;;;;;;;;;8298417;28;20046;-93
2023/04/09 02:29:40;;;;;;;36.15;20.60;;;;;;;;;;8296179;28;20405;-94
2023/04/09 02:33:44;;;;;;;34.78;20.02;;;;;;;;;;8305026;28;20144;-93
2023/04/09 02:37:48;;;;;;;36.72;20.80;;;;;;;;;;8295408;28;20990;-94
2023/04/09 02:41:51;;;;;;;43.25;23.83;;;;;;;;;;8296357;28;20060;-93
2023/04/09 02:45:54;;;;;;;40.22;21.17;;;;;;;;;;8294644;28;20046;-94
2023/04/09 02:49:59;;;;;;;38.33;20.75;;;;;;;;;;8306500;28;20048;-92
2023/04/09 02:54:02;;;;;;;36.30;20.23;;;;;;;;;;8307120;28;20049;-91
2023/04/09 02:58:06;;;;;;;40.22;24.63;;;;;;;;;;8314830;28;20119;-93
2023/04/09 03:02:09;;;;;;;41.28;23.55;;;;;;;;;;8308806;28;20484;-94
2023/04/09 03:06:14;;;;;;;39.13;22.52;;;;;;;;;;8297689;28;20069;-92
2023/04/09 03:10:17;;;;;;;38.65;23.13;;;;;;;;;;8305741;28;20402;-93
2023/04/09 03:14:20;;;;;;;41.45;22.98;;;;;;;;;;8292742;28;20117;-93
2023/04/09 03:18:23;;;;;;;39.22;21.75;;;;;;;;;;8306790;28;20038;-93
2023/04/09 03:22:27;;;;;;;39.97;23.17;;;;;;;;;;8305591;28;20077;-92
2023/04/09 03:26:35;;;;;;;41.00;21.85;;;;;;;;;;8304754;28;20052;-93
2023/04/09 03:30:38;;;;;;;38.42;21.30;;;;;;;;;;8313217;28;20045;-93
2023/04/09 03:34:41;;;;;;;34.83;21.10;;;;;;;;;;8313507;28;20072;-92
2023/04/09 03:38:45;;;;;;;35.35;20.90;;;;;;;;;;8305543;28;20042;-91
2023/04/09 03:42:48;;;;;;;39.92;20.95;;;;;;;;;;8324238;28;20069;-91
2023/04/09 03:46:51;;;;;;;34.88;21.13;;;;;;;;;;8323460;28;20048;-92
2023/04/09 03:50:54;;;;;;;34.13;19.80;;;;;;;;;;8309126;28;20175;-92
2023/04/09 03:54:58;;;;;;;37.63;20.40;;;;;;;;;;8319303;28;20072;-92
2023/04/09 03:59:01;;;;;;;33.45;19.30;;;;;;;;;;8319818;28;20045;-91
2023/04/09 04:03:04;;;;;;;36.60;20.40;;;;;;;;;;8317830;28;20046;-91
2023/04/09 04:07:07;;;;;;;36.33;20.95;;;;;;;;;;8308785;28;20050;-92
2023/04/09 04:11:12;;;;;;;31.88;19.63;;;;;;;;;;8311957;28;20505;-92
2023/04/09 04:15:15;;;;;;;38.00;21.52;;;;;;;;;;8314837;28;20116;-93
2023/04/09 04:19:18;;;;;;;35.05;20.50;;;;;;;;;;8311991;28;20038;-92
2023/04/09 04:23:21;;;;;;;37.25;22.10;;;;;;;;;;8319608;28;20044;-92
2023/04/09 04:27:25;;;;;;;37.55;20.58;;;;;;;;;;8315736;28;20042;-92
2023/04/09 04:31:28;;;;;;;36.25;20.35;;;;;;;;;;8316340;28;20477;-92
2023/04/09 04:35:31;;;;;;;34.55;19.20;;;;;;;;;;8313885;28;20041;-93
2023/04/09 04:39:35;;;;;;;42.75;24.35;;;;;;;;;;8310215;28;20048;-92
2023/04/09 04:43:40;;;;;;;33.92;20.15;;;;;;;;;;8316698;28;20121;-92
2023/04/09 04:47:44;;;;;;;32.58;18.65;;;;;;;;;;8313451;28;20168;-92
2023/04/09 04:51:47;;;;;;;91.85;49.40;;;;;;;;;;8317400;28;20041;-92
2023/04/09 04:55:50;;;;;;;177.98;93.97;;;;;;;;;;8309435;28;20053;-91
2023/04/09 04:59:54;;;;;;;133.07;71.90;;;;;;;;;;8304847;28;20116;-92
2023/04/09 05:03:57;;;;;;;90.85;49.55;;;;;;;;;;8306974;28;20160;-92
2023/04/09 05:08:00;;;;;;;137.40;73.00;;;;;;;;;;8309996;28;20520;-92
2023/04/09 05:12:04;;;;;;;61.97;32.55;;;;;;;;;;8309297;28;20088;-93
2023/04/09 05:16:09;;;;;;;58.55;32.30;;;;;;;;;;8306024;28;20049;-93
2023/04/09 05:20:12;;;;;;;54.85;31.27;;;;;;;;;;8307737;28;20048;-95
2023/04/09 05:24:16;;;;;;;74.47;38.13;;;;;;;;;;8315257;28;20408;-93
2023/04/09 05:28:19;;;;;;;77.80;40.15;;;;;;;;;;8309209;28;20042;-93
2023/04/09 05:32:23;;;;;;;66.63;38.08;;;;;;;;;;8304242;28;20049;-93
2023/04/09 05:36:26;;;;;;;84.47;44.38;;;;;;;;;;8308547;28;20041;-93
2023/04/09 05:40:29;;;;;;;163.50;81.20;;;;;;;;;;8326669;28;20050;-93
2023/04/09 05:44:32;;;;;;;154.52;77.53;;;;;;;;;;8293555;28;20046;-92
2023/04/09 05:48:37;;;;;;;107.88;61.60;;;;;;;;;;8308395;28;20132;-91
2023/04/09 05:52:40;;;;;;;95.28;56.30;;;;;;;;;;8317631;28;20498;-92
2023/04/09 05:56:43;;;;;;;110.32;61.85;;;;;;;;;;8316314;28;20041;-90
2023/04/09 06:00:46;;;;;;;88.30;53.47;;;;;;;;;;8309229;28;20061;-93
2023/04/09 06:04:51;;;;;;;86.13;55.97;;;;;;;;;;8310958;28;20080;-92
2023/04/09 06:08:54;;;;;;;79.00;52.03;;;;;;;;;;8310960;28;20069;-93
2023/04/09 06:12:57;;;;;;;82.20;54.50;;;;;;;;;;8310896;28;20387;-91
2023/04/09 06:17:01;;;;;;;84.55;54.60;;;;;;;;;;8308800;28;20124;-92
2023/04/09 06:21:08;;;;;;;88.80;52.22;;;;;;;;;;8310290;28;20048;-92
2023/04/09 06:25:11;;;;;;;56.80;35.38;;;;;;;;;;8322898;28;20056;-92
2023/04/09 06:29:14;;;;;;;50.08;30.83;;;;;;;;;;8324121;28;20041;-92
2023/04/09 06:33:17;;;;;;;48.78;29.92;;;;;;;;;;8314558;28;20107;-91
2023/04/09 06:37:21;;;;;;;43.08;27.58;;;;;;;;;;8309886;28;20120;-90
2023/04/09 06:41:25;;;;;;;25.38;18.92;;;;;;;;;;8317463;28;20091;-91
2023/04/09 06:45:28;;;;;;;21.98;16.35;;;;;;;;;;8323660;28;20041;-90
2023/04/09 06:49:31;;;;;;;28.08;18.50;;;;;;;;;;8322846;28;20049;-88
2023/04/09 06:53:36;;;;;;;15.98;9.93;;;;;;;;;;8319119;28;20548;-87
2023/04/09 06:57:39;;;;;;;14.82;9.45;;;;;;;;;;8322158;28;20034;-87
2023/04/09 07:01:41;;;;;;;14.55;9.50;;;;;;;;;;8316261;28;20118;-89
2023/04/09 07:05:44;;;;;;;27.63;16.35;;;;;;;;;;8325605;28;20452;-89
2023/04/09 07:09:48;;;;;;;78.30;44.30;;;;;;;;;;8324665;28;20134;-89
2023/04/09 07:13:51;;;;;;;18.73;11.73;;;;;;;;;;8318189;28;20050;-89
2023/04/09 07:17:54;;;;;;;15.38;9.98;;;;;;;;;;8316611;28;20047;-89
2023/04/09 07:21:57;;;;;;;21.02;11.30;;;;;;;;;;8320666;28;20084;-89
2023/04/09 07:26:04;;;;;;;18.95;13.57;;;;;;;;;;8328835;28;20125;-89
2023/04/09 07:30:09;;;;;;;11.35;6.70;;;;;;;;;;8332414;28;20041;-89
2023/04/09 07:34:12;;;;;;;12.30;6.97;;;;;;;;;;8322880;28;20492;-89
2023/04/09 07:38:18;;;;;;;10.02;6.95;;;;;;;;;;8323817;28;20072;-88
2023/04/09 07:42:23;;;;;;;10.23;6.60;;;;;;;;;;8332320;28;20056;-89
2023/04/09 07:46:25;;;;;;;8.77;5.93;;;;;;;;;;8325368;28;20401;-89
2023/04/09 07:50:29;;;;;;;14.80;10.00;;;;;;;;;;8326718;28;20041;-89
2023/04/09 07:54:32;;;;;;;11.93;6.60;;;;;;;;;;8317236;28;20124;-89
2023/04/09 07:58:37;;;;;;;12.32;8.10;;;;;;;;;;8321309;28;20042;-89
2023/04/09 08:02:41;;;;;;;9.48;6.30;;;;;;;;;;8323530;28;20046;-89
2023/04/09 08:06:46;;;;;;;10.15;6.45;;;;;;;;;;8322757;28;20474;-89
2023/04/09 08:10:49;;;;;;;10.60;6.75;;;;;;;;;;8289954;28;20103;-89
2023/04/09 08:14:54;;;;;;;9.68;6.60;;;;;;;;;;8287785;28;20045;-90
2023/04/09 08:18:57;;;;;;;8.70;5.97;;;;;;;;;;8293278;28;20038;-89
2023/04/09 08:23:00;;;;;;;9.93;6.35;;;;;;;;;;8287319;28;20042;-89
2023/04/09 08:27:03;;;;;;;8.32;5.90;;;;;;;;;;8285714;28;20053;-89
2023/04/09 08:31:09;;;;;;;10.05;5.80;;;;;;;;;;8291404;28;20073;-89
2023/04/09 08:35:12;;;;;;;8.02;5.30;;;;;;;;;;8288477;28;20057;-89
2023/04/09 08:39:17;;;;;;;10.13;6.18;;;;;;;;;;8287936;28;20137;-89
2023/04/09 08:43:24;;;;;;;8.48;6.00;;;;;;;;;;8288496;28;20133;-90
2023/04/09 08:47:29;;;;;;;8.75;5.65;;;;;;;;;;8289805;28;20050;-92
2023/04/09 08:51:32;;;;;;;8.60;5.80;;;;;;;;;;8288652;28;20049;-89
2023/04/09 08:55:36;;;;;;;9.38;6.13;;;;;;;;;;8286926;28;20501;-89
2023/04/09 08:59:39;;;;;;;9.82;6.72;;;;;;;;;;8293059;28;20041;-93
2023/04/09 09:03:54;;;;;;;11.15;7.40;;;;;;;;;;8293062;28;20404;-93
2023/04/09 09:07:57;;;;;;;11.23;7.70;;;;;;;;;;8294486;28;20132;-92
2023/04/09 09:12:00;;;;;;;11.60;8.05;;;;;;;;;;8302485;28;20041;-92
2023/04/09 09:16:14;;;;;;;11.80;7.72;;;;;;;;;;8297239;28;20061;-93
2023/04/09 09:20:21;;;;;;;12.05;8.40;;;;;;;;;;8291097;28;20475;-92
2023/04/09 09:24:24;;;;;;;11.05;7.18;;;;;;;;;;8293172;28;20076;-91
2023/04/09 09:28:35;;;;;;;10.45;7.15;;;;;;;;;;8295655;28;20125;-92
2023/04/09 09:32:38;;;;;;;11.87;7.50;;;;;;;;;;8290196;28;20077;-94
2023/04/09 09:36:43;;;;;;;11.00;7.18;;;;;;;;;;8277245;28;20052;-94
2023/04/09 09:40:47;;;;;;;13.32;8.60;;;;;;;;;;8292444;28;20567;-94
2023/04/09 09:44:51;;;;;;;10.63;7.55;;;;;;;;;;8284243;28;20129;-90
2023/04/09 09:48:56;;;;;;;9.60;6.53;;;;;;;;;;8304283;28;20509;-91
2023/04/09 09:53:07;;;;;;;13.40;7.35;;;;;;;;;;8323248;28;20607;-90
2023/04/09 09:57:12;;;;;;;12.82;7.25;;;;;;;;;;8323881;28;20065;-91
2023/04/09 10:01:19;;;;;;;14.02;7.60;;;;;;;;;;8324951;28;20052;-92
2023/04/09 10:05:26;;;;;;;11.57;7.00;;;;;;;;;;8335325;28;20057;-91
2023/04/09 10:09:32;;;;;;;11.10;6.68;;;;;;;;;;8307656;28;20104;-91
2023/04/09 10:13:38;;;;;;;19.35;7.57;;;;;;;;;;8324722;28;20121;-91
2023/04/09 10:17:42;;;;;;;12.48;6.90;;;;;;;;;;8319793;28;20042;-91
2023/04/09 10:21:53;;;;;;;15.82;9.48;;;;;;;;;;8320589;28;20092;-88
2023/04/09 10:25:59;;;;;;;10.75;6.93;;;;;;;;;;8323554;28;20077;-91
2023/04/09 10:30:04;;;;;;;9.15;6.28;;;;;;;;;;8341069;28;20588;-91
2023/04/09 10:34:09;;;;;;;9.35;6.93;;;;;;;;;;8315422;28;20042;-91
2023/04/09 10:38:14;;;;;;;25.25;19.13;;;;;;;;;;8325790;28;20044;-91
2023/04/09 10:42:23;;;;;;;11.73;8.57;;;;;;;;;;8317352;28;20065;-91
2023/04/09 10:46:28;;;;;;;11.55;7.32;;;;;;;;;;8324485;28;20049;-91
2023/04/09 10:50:35;;;;;;;9.13;6.43;;;;;;;;;;8316939;28;20569;-91
2023/04/09 10:54:42;;;;;;;34.05;18.23;;;;;;;;;;8320713;28;20446;-90
2023/04/09 10:58:47;;;;;;;9.50;6.35;;;;;;;;;;8311546;28;20047;-90
2023/04/09 11:03:27;;;;;;;10.90;7.25;;;;;;;;;;8309855;28;20096;-91
2023/04/09 11:07:33;;;;;;;11.18;7.00;;;;;;;;;;8289319;28;20038;-92
2023/04/09 11:11:35;;;;;;;16.83;11.40;;;;;;;;;;8301779;28;20141;-92
2023/04/09 11:15:40;;;;;;;12.25;7.47;;;;;;;;;;8298452;28;20489;-92
2023/04/09 11:19:44;;;;;;;10.20;6.72;;;;;;;;;;8289602;28;20141;-91
2023/04/09 11:23:52;;;;;;;13.02;7.07;;;;;;;;;;8294819;28;20482;-92
2023/04/09 11:27:55;;;;;;;12.77;9.25;;;;;;;;;;8291160;28;20060;-92
2023/04/09 11:32:01;;;;;;;15.80;9.98;;;;;;;;;;8317652;28;20049;-92
2023/04/09 11:36:06;;;;;;;13.82;8.05;;;;;;;;;;8316510;28;20131;-92
2023/04/09 11:40:16;;;;;;;17.17;11.05;;;;;;;;;;8308851;28;20331;-92
2023/04/09 11:44:21;;;;;;;15.65;9.57;;;;;;;;;;8311304;28;20072;-92
2023/04/09 11:48:25;;;;;;;22.98;12.85;;;;;;;;;;8289336;28;20057;-91
2023/04/09 11:52:30;;;;;;;13.27;7.13;;;;;;;;;;8298986;28;20050;-92
2023/04/09 11:56:35;;;;;;;16.92;9.38;;;;;;;;;;8283767;28;20047;-91
2023/04/09 12:00:41;;;;;;;37.53;21.67;;;;;;;;;;8294670;28;20103;-92
2023/04/09 12:04:51;;;;;;;16.63;11.48;;;;;;;;;;8300718;28;20052;-92
2023/04/09 12:08:55;;;;;;;11.25;6.78;;;;;;;;;;8321403;28;20789;-91
2023/04/09 12:13:03;;;;;;;12.48;6.40;;;;;;;;;;8297345;28;20046;-92
2023/04/09 12:17:08;;;;;;;10.93;6.57;;;;;;;;;;8286255;28;20129;-91
2023/04/09 12:21:16;;;;;;;13.13;6.72;;;;;;;;;;8295365;28;20098;-92
2023/04/09 12:25:20;;;;;;;10.65;6.68;;;;;;;;;;8311715;28;20130;-91
2023/04/09 12:29:24;;;;;;;12.05;6.70;;;;;;;;;;8296752;28;20133;-91
2023/04/09 12:33:27;;;;;;;16.08;9.05;;;;;;;;;;8293581;28;20073;-93
2023/04/09 12:37:32;;;;;;;36.70;16.60;;;;;;;;;;8284455;28;20070;-91
2023/04/09 12:41:35;;;;;;;17.65;8.23;;;;;;;;;;8293780;28;20046;-92
2023/04/09 12:45:38;;;;;;;13.88;7.65;;;;;;;;;;8300845;28;20672;-91
2023/04/09 12:49:44;;;;;;;14.07;7.18;;;;;;;;;;8296068;28;20064;-92
2023/04/09 12:53:48;;;;;;;13.50;7.63;;;;;;;;;;8293121;28;20100;-92
2023/04/09 12:57:51;;;;;;;11.18;5.95;;;;;;;;;;8291314;28;20042;-92
2023/04/09 13:01:55;;;;;;;9.93;6.45;;;;;;;;;;8295861;28;20379;-91
2023/04/09 13:05:58;;;;;;;11.73;7.72;;;;;;;;;;8296874;28;20038;-91
2023/04/09 13:10:02;;;;;;;14.48;7.32;;;;;;;;;;8316056;28;20139;-92
2023/04/09 13:14:05;;;;;;;13.95;7.13;;;;;;;;;;8318262;28;20045;-90
2023/04/09 13:18:19;;;;;;;17.92;8.30;;;;;;;;;;8479363;27;20907;-91
2023/04/09 13:22:22;;;;;;;11.75;7.32;;;;;;;;;;8459179;28;20126;-91
2023/04/09 13:26:25;;;;;;;13.05;6.82;;;;;;;;;;8458689;28;20071;-92
2023/04/09 13:30:28;;;;;;;9.88;6.28;;;;;;;;;;8458656;28;20130;-91
2023/04/09 13:34:33;;;;;;;15.65;7.00;;;;;;;;;;8458378;28;20047;-90
2023/04/09 13:38:36;;;;;;;12.43;7.68;;;;;;;;;;8459155;28;20047;-91
2023/04/09 13:42:39;;;;;;;11.65;7.38;;;;;;;;;;8458107;28;20054;-90
2023/04/09 13:46:42;;;;;;;12.02;7.28;;;;;;;;;;8457785;28;20145;-92
2023/04/09 13:50:47;;;;;;;12.50;7.50;;;;;;;;;;8457685;28;20138;-91
2023/04/09 13:54:52;;;;;;;13.50;7.70;;;;;;;;;;8457639;28;20085;-91
2023/04/09 13:58:55;;;;;;;9.75;6.80;;;;;;;;;;8457638;28;20050;-91
2023/04/09 14:02:58;;;;;;;16.80;10.57;;;;;;;;;;8457505;28;20054;-91
2023/04/09 14:07:03;;;;;;;13.98;8.25;;;;;;;;;;8457388;28;20044;-92
2023/04/09 14:11:06;;;;;;;14.02;8.82;;;;;;;;;;8457456;28;20093;-91
2023/04/09 14:15:10;;;;;;;14.68;9.00;;;;;;;;;;8456649;28;20056;-90
2023/04/09 14:19:16;;;;;;;14.60;8.05;;;;;;;;;;8453511;28;20135;-90
2023/04/09 14:23:21;;;;;;;13.27;7.50;;;;;;;;;;8441950;28;20063;-91
2023/04/09 14:27:23;;;;;;;12.40;7.50;;;;;;;;;;8422871;28;20044;-91
2023/04/09 14:31:26;;;;;;;12.73;7.65;;;;;;;;;;8412033;28;20090;-90
2023/04/09 14:35:30;;;;;;;19.40;10.35;;;;;;;;;;8405955;28;20503;-91
2023/04/09 14:39:34;;;;;;;18.08;10.45;;;;;;;;;;8424701;28;20669;-92
2023/04/09 14:43:38;;;;;;;13.27;7.30;;;;;;;;;;8425201;28;20559;-92
2023/04/09 14:47:41;;;;;;;10.45;7.00;;;;;;;;;;8413452;28;20054;-91
2023/04/09 14:51:45;;;;;;;17.67;8.52;;;;;;;;;;8424283;28;20055;-91
2023/04/09 14:55:49;;;;;;;16.27;9.10;;;;;;;;;;8420693;28;20040;-91
2023/04/09 14:59:52;;;;;;;11.60;7.25;;;;;;;;;;8419673;28;20048;-91
2023/04/09 15:03:58;;;;;;;13.55;6.78;;;;;;;;;;8422069;28;20099;-91
2023/04/09 15:08:00;;;;;;;14.43;8.43;;;;;;;;;;8424635;28;20044;-88
2023/04/09 15:12:05;;;;;;;35.72;21.52;;;;;;;;;;8421026;28;20052;-89
2023/04/09 15:16:08;;;;;;;20.25;8.30;;;;;;;;;;8423048;28;20055;-89
2023/04/09 15:20:12;;;;;;;11.38;7.00;;;;;;;;;;8420700;28;20070;-88
2023/04/09 15:24:15;;;;;;;9.77;6.30;;;;;;;;;;8421749;28;20036;-88
2023/04/09 15:28:20;;;;;;;10.38;6.80;;;;;;;;;;8415961;28;20433;-87
2023/04/09 15:32:24;;;;;;;9.45;6.78;;;;;;;;;;8409238;28;20836;-89
2023/04/09 15:36:29;;;;;;;13.25;7.97;;;;;;;;;;8412698;28;20045;-88
2023/04/09 15:40:32;;;;;;;13.85;7.72;;;;;;;;;;8411009;28;20051;-90
2023/04/09 15:44:38;;;;;;;24.40;11.60;;;;;;;;;;8411599;28;20040;-90
2023/04/09 15:48:41;;;;;;;25.45;10.75;;;;;;;;;;8413543;28;20040;-89
2023/04/09 15:52:45;;;;;;;36.45;13.25;;;;;;;;;;8426889;28;20044;-87
2023/04/09 15:56:48;;;;;;;25.05;10.82;;;;;;;;;;8414622;28;20047;-91
2023/04/09 16:00:53;;;;;;;24.38;13.85;;;;;;;;;;8420278;28;20044;-89
2023/04/09 16:04:56;;;;;;;17.23;10.00;;;;;;;;;;8408534;28;20407;-89
2023/04/09 16:08:59;;;;;;;17.67;11.10;;;;;;;;;;8404074;28;20048;-89
2023/04/09 16:13:03;;;;;;;20.85;10.10;;;;;;;;;;8414069;28;20055;-88
2023/04/09 16:17:09;;;;;;;25.90;12.93;;;;;;;;;;8421931;28;20051;-93
2023/04/09 16:21:17;;;;;;;15.00;9.13;;;;;;;;;;8443187;28;20040;-91
2023/04/09 16:25:24;;;;;;;17.00;9.13;;;;;;;;;;8433712;28;20070;-89
2023/04/09 16:29:28;;;;;;;12.68;8.10;;;;;;;;;;8424183;28;20067;-88
2023/04/09 16:33:34;;;;;;;16.17;9.23;;;;;;;;;;8423845;28;20467;-90
2023/04/09 16:37:37;;;;;;;15.60;10.20;;;;;;;;;;8411153;28;20047;-89
2023/04/09 16:41:40;;;;;;;21.50;10.93;;;;;;;;;;8423344;28;20054;-90
2023/04/09 16:45:43;;;;;;;18.33;10.63;;;;;;;;;;8417334;28;20548;-90
2023/04/09 16:49:48;;;;;;;19.75;11.07;;;;;;;;;;8410639;28;20040;-91
2023/04/09 16:53:52;;;;;;;21.17;12.52;;;;;;;;;;8413140;28;20484;-88
2023/04/09 16:57:56;;;;;;;21.95;13.30;;;;;;;;;;8406883;28;20055;-89
2023/04/09 17:01:59;;;;;;;21.50;12.65;;;;;;;;;;8420927;28;20075;-88
2023/04/09 17:06:04;;;;;;;17.23;9.77;;;;;;;;;;8423686;28;20513;-89
2023/04/09 17:10:12;;;;;;;14.85;9.32;;;;;;;;;;8404491;28;20055;-90
2023/04/09 17:14:16;;;;;;;14.85;8.18;;;;;;;;;;8423965;28;20123;-90
2023/04/09 17:18:19;;;;;;;12.80;8.57;;;;;;;;;;8422890;28;20052;-89
2023/04/09 17:22:24;;;;;;;17.90;11.25;;;;;;;;;;8422905;28;20047;-88
2023/04/09 17:26:27;;;;;;;86.75;32.47;;;;;;;;;;8412252;28;20075;-88
2023/04/09 17:30:31;;;;;;;22.63;12.27;;;;;;;;;;8406398;28;20079;-89
2023/04/09 17:34:37;;;;;;;56.13;25.42;;;;;;;;;;8422636;28;20059;-90
2023/04/09 17:38:43;;;;;;;101.07;35.78;;;;;;;;;;8417623;28;20066;-88
2023/04/09 17:42:49;;;;;;;58.72;24.63;;;;;;;;;;8415151;28;20483;-89
2023/04/09 17:46:52;;;;;;;17.85;9.90;;;;;;;;;;8406958;28;20048;-88
2023/04/09 17:50:56;;;;;;;15.88;9.88;;;;;;;;;;8416243;28;20411;-90
2023/04/09 17:55:01;;;;;;;14.10;8.98;;;;;;;;;;8428484;28;20085;-92
2023/04/09 17:59:05;;;;;;;15.65;8.70;;;;;;;;;;8431086;28;20051;-92
2023/04/09 18:03:07;;;;;;;14.20;8.63;;;;;;;;;;8440498;28;20103;-92
2023/04/09 18:07:10;;;;;;;17.58;10.27;;;;;;;;;;8445958;28;20079;-93
2023/04/09 18:11:17;;;;;;;16.23;9.77;;;;;;;;;;8431561;28;20139;-90
2023/04/09 18:15:21;;;;;;;27.13;14.80;;;;;;;;;;8425166;28;20064;-91
2023/04/09 18:19:27;;;;;;;79.97;47.45;;;;;;;;;;8445221;28;20426;-92
2023/04/09 18:23:30;;;;;;;42.05;25.10;;;;;;;;;;8454041;28;20047;-89
2023/04/09 18:27:35;;;;;;;26.45;15.68;;;;;;;;;;8453960;28;20051;-89
2023/04/09 18:31:38;;;;;;;18.10;11.07;;;;;;;;;;8449154;28;20044;-92
2023/04/09 18:35:46;;;;;;;31.35;21.25;;;;;;;;;;8441191;28;20496;-91
2023/04/09 18:39:50;;;;;;;20.92;12.80;;;;;;;;;;8440940;28;20072;-90
2023/04/09 18:43:55;;;;;;;16.85;10.68;;;;;;;;;;8448991;28;20044;-91
2023/04/09 18:47:58;;;;;;;21.67;12.63;;;;;;;;;;8448259;28;20044;-91
2023/04/09 18:52:04;;;;;;;17.25;11.10;;;;;;;;;;8450772;28;20047;-92
2023/04/09 18:56:08;;;;;;;18.13;10.65;;;;;;;;;;8451072;28;20118;-94
2023/04/09 19:00:15;;;;;;;19.23;11.57;;;;;;;;;;8444841;28;20048;-90
2023/04/09 19:04:19;;;;;;;20.45;12.57;;;;;;;;;;8450477;28;20044;-91
2023/04/09 19:08:23;;;;;;;20.50;12.40;;;;;;;;;;8455570;28;20624;-90
2023/04/09 19:12:27;;;;;;;17.77;10.93;;;;;;;;;;8460914;28;20044;-90
2023/04/09 19:16:35;;;;;;;19.08;11.75;;;;;;;;;;8453880;28;20060;-93
2023/04/09 19:20:40;;;;;;;19.42;12.07;;;;;;;;;;8454026;28;20055;-90
2023/04/09 19:24:45;;;;;;;20.85;12.32;;;;;;;;;;8462700;28;20047;-91
2023/04/09 19:28:51;;;;;;;19.33;12.77;;;;;;;;;;8463881;28;20040;-90
2023/04/09 19:32:57;;;;;;;22.95;13.43;;;;;;;;;;8460450;28;20506;-90
2023/04/09 19:37:01;;;;;;;28.70;16.90;;;;;;;;;;8452502;28;20052;-89
2023/04/09 19:41:05;;;;;;;24.90;16.05;;;;;;;;;;8447213;28;20051;-91
2023/04/09 19:45:09;;;;;;;25.20;14.93;;;;;;;;;;8443134;28;20480;-89
2023/04/09 19:49:15;;;;;;;26.20;13.35;;;;;;;;;;8443166;28;20051;-90
2023/04/09 19:53:18;;;;;;;24.55;13.68;;;;;;;;;;8445792;28;20048;-90
2023/04/09 19:57:22;;;;;;;23.40;14.35;;;;;;;;;;8438632;28;20392;-90
2023/04/09 20:01:25;;;;;;;19.42;13.05;;;;;;;;;;8429218;28;20166;-90
2023/04/09 20:05:30;;;;;;;22.17;13.80;;;;;;;;;;8430220;28;20488;-86
2023/04/09 20:09:33;;;;;;;24.20;13.82;;;;;;;;;;8429502;28;20064;-86
2023/04/09 20:13:36;;;;;;;42.88;18.45;;;;;;;;;;8430607;28;20043;-89
2023/04/09 20:17:43;;;;;;;29.75;15.13;;;;;;;;;;8430375;28;20139;-90
2023/04/09 20:21:51;;;;;;;21.42;12.35;;;;;;;;;;8445582;28;20036;-90
2023/04/09 20:25:55;;;;;;;20.08;11.70;;;;;;;;;;8434878;28;20035;-90
2023/04/09 20:29:59;;;;;;;19.75;12.05;;;;;;;;;;8433896;28;20071;-91
2023/04/09 20:34:03;;;;;;;22.30;13.55;;;;;;;;;;8430151;28;20369;-90
2023/04/09 20:38:09;;;;;;;22.42;12.00;;;;;;;;;;8429891;28;20047;-89
2023/04/09 20:42:13;;;;;;;48.75;18.98;;;;;;;;;;8429984;28;20479;-89
2023/04/09 20:46:16;;;;;;;55.47;26.10;;;;;;;;;;8429085;28;20096;-90
2023/04/09 20:50:19;;;;;;;58.88;21.83;;;;;;;;;;8429123;28;20058;-89
2023/04/09 20:54:23;;;;;;;24.85;12.52;;;;;;;;;;8429553;28;20051;-89
2023/04/09 20:58:26;;;;;;;18.60;11.52;;;;;;;;;;8429322;28;20179;-89
2023/04/09 21:02:30;;;;;;;20.23;12.80;;;;;;;;;;8428358;28;20054;-89
2023/04/09 21:06:34;;;;;;;19.17;11.77;;;;;;;;;;8428106;28;20047;-89
2023/04/09 21:10:39;;;;;;;22.13;11.93;;;;;;;;;;8428584;28;20051;-89
2023/04/09 21:14:42;;;;;;;19.38;12.32;;;;;;;;;;8428828;28;20062;-88
2023/04/09 21:18:45;;;;;;;26.48;12.98;;;;;;;;;;8428936;28;20122;-90
2023/04/09 21:22:48;;;;;;;25.50;13.80;;;;;;;;;;8428761;28;20119;-89
2023/04/09 21:26:52;;;;;;;19.88;12.88;;;;;;;;;;8428569;28;20044;-89
2023/04/09 21:30:56;;;;;;;17.92;11.48;;;;;;;;;;8415369;28;20036;-88
2023/04/09 21:34:59;;;;;;;20.10;12.05;;;;;;;;;;8428687;28;20434;-89
2023/04/09 21:39:02;;;;;;;18.73;11.65;;;;;;;;;;8419988;28;20130;-90
2023/04/09 21:43:07;;;;;;;19.60;12.13;;;;;;;;;;8435082;28;20093;-89
2023/04/09 21:47:10;;;;;;;19.85;11.98;;;;;;;;;;8433960;28;20104;-89
2023/04/09 21:51:14;;;;;;;19.60;12.02;;;;;;;;;;8434087;28;20040;-87
2023/04/09 21:55:16;;;;;;;22.30;12.57;;;;;;;;;;8432703;28;20048;-89
2023/04/09 21:59:21;;;;;;;27.33;13.85;;;;;;;;;;8433949;28;20492;-90
2023/04/09 22:03:24;;;;;;;19.75;12.05;;;;;;;;;;8429777;28;20398;-91
2023/04/09 22:07:27;;;;;;;20.38;11.60;;;;;;;;;;8431209;28;20040;-91
2023/04/09 22:11:30;;;;;;;21.92;13.57;;;;;;;;;;8419933;28;20755;-90
2023/04/09 22:15:34;;;;;;;26.88;15.77;;;;;;;;;;8433118;28;20056;-90
2023/04/09 22:19:37;;;;;;;21.17;13.43;;;;;;;;;;8428313;28;20865;-90
2023/04/09 22:23:40;;;;;;;24.92;14.32;;;;;;;;;;8434203;28;20097;-89
2023/04/09 22:27:43;;;;;;;28.05;16.77;;;;;;;;;;8420117;28;20130;-90
2023/04/09 22:31:48;;;;;;;23.98;15.38;;;;;;;;;;8434171;28;20127;-90
2023/04/09 22:35:51;;;;;;;30.88;17.92;;;;;;;;;;8432436;28;20418;-90
2023/04/09 22:39:54;;;;;;;28.52;17.60;;;;;;;;;;8432945;28;20050;-91
2023/04/09 22:43:58;;;;;;;51.85;28.65;;;;;;;;;;8433214;28;20111;-89
2023/04/09 22:48:02;;;;;;;32.97;19.65;;;;;;;;;;8430832;28;20036;-89
2023/04/09 22:52:05;;;;;;;61.05;32.35;;;;;;;;;;8432408;28;20048;-89
2023/04/09 22:56:08;;;;;;;27.02;17.25;;;;;;;;;;8430825;28;20036;-89
2023/04/09 23:00:12;;;;;;;32.40;17.48;;;;;;;;;;8430085;28;20052;-89
2023/04/09 23:04:21;;;;;;;32.47;18.05;;;;;;;;;;8433279;28;20047;-90
2023/04/09 23:08:25;;;;;;;27.15;16.38;;;;;;;;;;8433208;28;20043;-89
2023/04/09 23:12:28;;;;;;;35.70;20.95;;;;;;;;;;8431768;28;20044;-90
2023/04/09 23:16:31;;;;;;;28.35;18.48;;;;;;;;;;8431743;28;20086;-90
2023/04/09 23:20:35;;;;;;;37.45;20.30;;;;;;;;;;8431206;28;20048;-90
2023/04/09 23:24:38;;;;;;;31.30;19.65;;;;;;;;;;8431879;28;20093;-90
2023/04/09 23:28:41;;;;;;;39.65;22.40;;;;;;;;;;8431232;28;20535;-90
2023/04/09 23:32:44;;;;;;;31.88;20.05;;;;;;;;;;8431043;28;20078;-89
2023/04/09 23:36:49;;;;;;;35.38;20.77;;;;;;;;;;8426630;28;20086;-88
2023/04/09 23:40:52;;;;;;;34.10;20.65;;;;;;;;;;8431210;28;20127;-89
2023/04/09 23:44:55;;;;;;;33.75;20.70;;;;;;;;;;8428715;28;20046;-88
2023/04/09 23:48:58;;;;;;;26.73;16.02;;;;;;;;;;8430960;28;20047;-91
2023/04/09 23:53:03;;;;;;;26.85;17.05;;;;;;;;;;8426379;28;20040;-90